This is the latest recevied weather packets stored in our database for station/object DG8SF-13. If no packets are shown the sender has not sent any weather packets the latest 10 day(s).
| Time | Temp. | Humidity | Pressure | Rain* | Wind** | Luminosity | Snow |
|---|---|---|---|---|---|---|---|
| 1778255067 | 20.56° C | 45% | 1013.9 hPa | 0 mm | - | - | - |
| 1778254755 | 21.11° C | 45% | 1013.9 hPa | 0 mm | - | - | - |
| 1778254443 | 20.56° C | 45% | 1013.9 hPa | 0 mm | - | - | - |
| 1778254131 | 20.56° C | 46% | 1014 hPa | 0 mm | - | - | - |
| 1778253820 | 20.56° C | 46% | 1014.1 hPa | 0 mm | - | - | - |
| 1778253507 | 20.56° C | 46% | 1014.1 hPa | 0 mm | - | - | - |
| 1778253196 | 20° C | 46% | 1014.2 hPa | 0 mm | - | - | - |
| 1778252886 | 19.44° C | 48% | 1014.3 hPa | 0 mm | - | - | - |
| 1778252572 | 20° C | 47% | 1014.4 hPa | 0 mm | - | - | - |
| 1778252259 | 20.56° C | 46% | 1014.4 hPa | 0 mm | - | - | - |
| 1778251949 | 21.67° C | 43% | 1014.2 hPa | 0 mm | - | - | - |
| 1778251635 | 21.67° C | 44% | 1014.3 hPa | 0 mm | - | - | - |
| 1778251325 | 22.22° C | 44% | 1014.3 hPa | 0 mm | - | - | - |
| 1778251012 | 22.22° C | 42% | 1014.5 hPa | 0 mm | - | - | - |
| 1778250698 | 21.67° C | 44% | 1014.6 hPa | 0 mm | - | - | - |
| 1778250386 | 22.22° C | 44% | 1014.6 hPa | 0 mm | - | - | - |
| 1778250078 | 21.67° C | 44% | 1014.6 hPa | 0 mm | - | - | - |
| 1778249763 | 23.89° C | 40% | 1014.7 hPa | 0 mm | - | - | - |
| 1778249454 | 22.22° C | 42% | 1014.7 hPa | 0 mm | - | - | - |
| 1778249145 | 22.22° C | 44% | 1014.8 hPa | 0 mm | - | - | - |
| 1778248829 | 22.78° C | 41% | 1014.9 hPa | 0 mm | - | - | - |
| 1778248518 | 23.89° C | 41% | 1015 hPa | 0 mm | - | - | - |
| 1778248205 | 22.22° C | 44% | 1015 hPa | 0 mm | - | - | - |
| 1778247893 | 21.67° C | 43% | 1015 hPa | 0 mm | - | - | - |
| 1778247579 | 21.67° C | 42% | 1015.1 hPa | 0 mm | - | - | - |
* Rain latest hour (hover to see other rain measurements)
** Current wind speed in m/s (hover to see current wind gust speed)